sensor_id;sensor_type;location;lat;lon;timestamp;temperature;humidity
64032;DHT22;50278;47.796;11.968;2022-09-01T00:01:41;13.68;118.99
64032;DHT22;50278;47.796;11.968;2022-09-01T00:04:12;13.64;118.99
64032;DHT22;50278;47.796;11.968;2022-09-01T00:06:40;13.63;118.99
64032;DHT22;50278;47.796;11.968;2022-09-01T00:09:11;13.60;118.99
64032;DHT22;50278;47.796;11.968;2022-09-01T00:11:39;13.65;118.99
64032;DHT22;50278;47.796;11.968;2022-09-01T00:14:06;13.67;118.99
64032;DHT22;50278;47.796;11.968;2022-09-01T00:16:32;13.64;118.99
64032;DHT22;50278;47.796;11.968;2022-09-01T00:18:58;13.61;118.99
64032;DHT22;50278;47.796;11.968;2022-09-01T00:21:30;13.63;118.99
64032;DHT22;50278;47.796;11.968;2022-09-01T00:23:56;13.63;118.99
64032;DHT22;50278;47.796;11.968;2022-09-01T00:26:22;13.62;118.99
64032;DHT22;50278;47.796;11.968;2022-09-01T00:28:48;13.66;118.99
64032;DHT22;50278;47.796;11.968;2022-09-01T00:31:16;13.68;118.99
64032;DHT22;50278;47.796;11.968;2022-09-01T00:33:46;13.69;118.99
64032;DHT22;50278;47.796;11.968;2022-09-01T00:36:12;13.63;118.99
64032;DHT22;50278;47.796;11.968;2022-09-01T00:38:37;13.62;118.99
64032;DHT22;50278;47.796;11.968;2022-09-01T00:41:04;13.65;118.99
64032;DHT22;50278;47.796;11.968;2022-09-01T00:46:17;13.60;118.99
64032;DHT22;50278;47.796;11.968;2022-09-01T00:48:44;13.60;118.99
64032;DHT22;50278;47.796;11.968;2022-09-01T00:51:11;13.58;118.99
64032;DHT22;50278;47.796;11.968;2022-09-01T00:53:40;13.56;118.99
64032;DHT22;50278;47.796;11.968;2022-09-01T00:56:06;13.53;118.99
64032;DHT22;50278;47.796;11.968;2022-09-01T00:58:33;13.56;118.99
64032;DHT22;50278;47.796;11.968;2022-09-01T01:01:00;13.60;118.99
64032;DHT22;50278;47.796;11.968;2022-09-01T01:03:27;13.53;118.99
64032;DHT22;50278;47.796;11.968;2022-09-01T01:05:56;13.56;118.99
64032;DHT22;50278;47.796;11.968;2022-09-01T01:08:29;13.56;118.99
64032;DHT22;50278;47.796;11.968;2022-09-01T01:11:29;13.54;118.99
64032;DHT22;50278;47.796;11.968;2022-09-01T01:13:59;13.50;118.99
64032;DHT22;50278;47.796;11.968;2022-09-01T01:16:30;13.47;118.99
64032;DHT22;50278;47.796;11.968;2022-09-01T01:18:56;13.51;118.99
64032;DHT22;50278;47.796;11.968;2022-09-01T01:21:33;13.46;118.99
64032;DHT22;50278;47.796;11.968;2022-09-01T01:24:26;13.45;118.99
64032;DHT22;50278;47.796;11.968;2022-09-01T01:26:53;13.48;118.99
64032;DHT22;50278;47.796;11.968;2022-09-01T01:29:22;13.46;118.99
64032;DHT22;50278;47.796;11.968;2022-09-01T01:31:49;13.48;118.99
64032;DHT22;50278;47.796;11.968;2022-09-01T01:34:18;13.50;118.99
64032;DHT22;50278;47.796;11.968;2022-09-01T01:36:44;13.55;118.99
64032;DHT22;50278;47.796;11.968;2022-09-01T01:39:19;13.51;118.99
64032;DHT22;50278;47.796;11.968;2022-09-01T01:41:46;13.51;118.99
64032;DHT22;50278;47.796;11.968;2022-09-01T01:44:17;13.49;118.99
64032;DHT22;50278;47.796;11.968;2022-09-01T01:46:47;13.47;118.99
64032;DHT22;50278;47.796;11.968;2022-09-01T01:49:16;13.43;118.99
64032;DHT22;50278;47.796;11.968;2022-09-01T01:51:46;13.50;118.99
64032;DHT22;50278;47.796;11.968;2022-09-01T01:54:13;13.49;118.99
64032;DHT22;50278;47.796;11.968;2022-09-01T01:56:40;13.47;118.99
64032;DHT22;50278;47.796;11.968;2022-09-01T01:59:08;13.44;118.99
64032;DHT22;50278;47.796;11.968;2022-09-01T02:01:38;13.40;118.99
64032;DHT22;50278;47.796;11.968;2022-09-01T02:04:04;13.40;118.99
64032;DHT22;50278;47.796;11.968;2022-09-01T02:06:33;13.41;118.99
64032;DHT22;50278;47.796;11.968;2022-09-01T02:08:59;13.40;118.99
64032;DHT22;50278;47.796;11.968;2022-09-01T02:11:26;13.40;118.99
64032;DHT22;50278;47.796;11.968;2022-09-01T02:13:53;13.36;118.99
64032;DHT22;50278;47.796;11.968;2022-09-01T02:16:26;13.35;118.99
64032;DHT22;50278;47.796;11.968;2022-09-01T02:18:53;13.34;118.99
64032;DHT22;50278;47.796;11.968;2022-09-01T02:21:21;13.33;118.99
64032;DHT22;50278;47.796;11.968;2022-09-01T02:23:56;13.34;118.99
64032;DHT22;50278;47.796;11.968;2022-09-01T02:26:27;13.35;118.99
64032;DHT22;50278;47.796;11.968;2022-09-01T02:29:04;13.36;118.99
64032;DHT22;50278;47.796;11.968;2022-09-01T02:31:33;13.35;118.99
64032;DHT22;50278;47.796;11.968;2022-09-01T02:34:07;13.32;118.99
64032;DHT22;50278;47.796;11.968;2022-09-01T02:36:36;13.30;118.99
64032;DHT22;50278;47.796;11.968;2022-09-01T02:39:05;13.25;118.99
64032;DHT22;50278;47.796;11.968;2022-09-01T02:41:31;13.21;118.99
64032;DHT22;50278;47.796;11.968;2022-09-01T02:43:59;13.21;118.99
64032;DHT22;50278;47.796;11.968;2022-09-01T02:46:27;13.22;118.99
64032;DHT22;50278;47.796;11.968;2022-09-01T02:48:54;13.23;118.99
64032;DHT22;50278;47.796;11.968;2022-09-01T02:51:22;13.23;118.99
64032;DHT22;50278;47.796;11.968;2022-09-01T02:53:50;13.19;118.99
64032;DHT22;50278;47.796;11.968;2022-09-01T02:56:22;13.18;118.99
64032;DHT22;50278;47.796;11.968;2022-09-01T02:58:48;13.15;118.99
64032;DHT22;50278;47.796;11.968;2022-09-01T03:01:20;13.17;118.99
64032;DHT22;50278;47.796;11.968;2022-09-01T03:03:51;13.16;118.99
64032;DHT22;50278;47.796;11.968;2022-09-01T03:06:18;13.05;118.99
64032;DHT22;50278;47.796;11.968;2022-09-01T03:08:50;13.07;118.99
64032;DHT22;50278;47.796;11.968;2022-09-01T03:11:16;13.09;118.99
64032;DHT22;50278;47.796;11.968;2022-09-01T03:13:42;13.05;118.99
64032;DHT22;50278;47.796;11.968;2022-09-01T03:16:08;13.08;118.99
64032;DHT22;50278;47.796;11.968;2022-09-01T03:18:35;13.04;118.99
64032;DHT22;50278;47.796;11.968;2022-09-01T03:21:02;12.97;118.99
64032;DHT22;50278;47.796;11.968;2022-09-01T03:23:29;12.89;118.99
64032;DHT22;50278;47.796;11.968;2022-09-01T03:25:56;12.85;118.99
64032;DHT22;50278;47.796;11.968;2022-09-01T03:28:22;12.75;118.99
64032;DHT22;50278;47.796;11.968;2022-09-01T03:30:50;12.70;118.99
64032;DHT22;50278;47.796;11.968;2022-09-01T03:33:19;12.65;118.99
64032;DHT22;50278;47.796;11.968;2022-09-01T03:35:47;12.63;118.99
64032;DHT22;50278;47.796;11.968;2022-09-01T03:38:13;12.62;118.99
64032;DHT22;50278;47.796;11.968;2022-09-01T03:40:48;12.60;118.99
64032;DHT22;50278;47.796;11.968;2022-09-01T03:43:14;12.59;118.99
64032;DHT22;50278;47.796;11.968;2022-09-01T03:45:41;12.56;118.99
64032;DHT22;50278;47.796;11.968;2022-09-01T03:48:08;12.48;118.99
64032;DHT22;50278;47.796;11.968;2022-09-01T03:50:41;12.45;118.99
64032;DHT22;50278;47.796;11.968;2022-09-01T03:53:16;12.42;118.99
64032;DHT22;50278;47.796;11.968;2022-09-01T03:55:45;12.34;118.99
64032;DHT22;50278;47.796;11.968;2022-09-01T03:58:12;12.35;118.99
64032;DHT22;50278;47.796;11.968;2022-09-01T04:00:42;12.27;118.99
64032;DHT22;50278;47.796;11.968;2022-09-01T04:03:11;12.28;118.99
64032;DHT22;50278;47.796;11.968;2022-09-01T04:05:40;12.28;118.99
64032;DHT22;50278;47.796;11.968;2022-09-01T04:08:07;12.26;118.99
64032;DHT22;50278;47.796;11.968;2022-09-01T04:10:42;12.23;118.99
64032;DHT22;50278;47.796;11.968;2022-09-01T04:13:10;12.28;118.99
64032;DHT22;50278;47.796;11.968;2022-09-01T04:15:37;12.27;118.99
64032;DHT22;50278;47.796;11.968;2022-09-01T04:18:03;12.26;118.99
64032;DHT22;50278;47.796;11.968;2022-09-01T04:20:36;12.20;118.99
64032;DHT22;50278;47.796;11.968;2022-09-01T04:23:33;12.15;118.99
64032;DHT22;50278;47.796;11.968;2022-09-01T04:26:10;12.13;118.99
64032;DHT22;50278;47.796;11.968;2022-09-01T04:28:41;12.14;118.99
64032;DHT22;50278;47.796;11.968;2022-09-01T04:31:12;12.14;118.99
64032;DHT22;50278;47.796;11.968;2022-09-01T04:33:42;12.11;118.99
64032;DHT22;50278;47.796;11.968;2022-09-01T04:36:16;12.17;118.99
64032;DHT22;50278;47.796;11.968;2022-09-01T04:38:50;12.12;118.99
64032;DHT22;50278;47.796;11.968;2022-09-01T04:41:20;12.11;118.99
64032;DHT22;50278;47.796;11.968;2022-09-01T04:43:48;12.11;118.99
64032;DHT22;50278;47.796;11.968;2022-09-01T04:46:17;12.11;118.99
64032;DHT22;50278;47.796;11.968;2022-09-01T04:48:43;12.14;118.99
64032;DHT22;50278;47.796;11.968;2022-09-01T04:51:11;12.17;118.99
64032;DHT22;50278;47.796;11.968;2022-09-01T04:53:55;12.18;118.99
64032;DHT22;50278;47.796;11.968;2022-09-01T04:56:23;12.18;118.99
64032;DHT22;50278;47.796;11.968;2022-09-01T04:59:03;12.23;118.99
64032;DHT22;50278;47.796;11.968;2022-09-01T05:01:33;12.27;118.99
64032;DHT22;50278;47.796;11.968;2022-09-01T05:04:11;12.20;118.99
64032;DHT22;50278;47.796;11.968;2022-09-01T05:06:41;12.25;118.99
64032;DHT22;50278;47.796;11.968;2022-09-01T05:09:09;12.23;118.99
64032;DHT22;50278;47.796;11.968;2022-09-01T05:11:45;12.31;118.99
64032;DHT22;50278;47.796;11.968;2022-09-01T05:14:25;12.31;118.99
64032;DHT22;50278;47.796;11.968;2022-09-01T05:16:58;12.33;118.99
64032;DHT22;50278;47.796;11.968;2022-09-01T05:19:26;12.36;118.99
64032;DHT22;50278;47.796;11.968;2022-09-01T05:21:55;12.36;118.99
64032;DHT22;50278;47.796;11.968;2022-09-01T05:24:23;12.37;118.99
64032;DHT22;50278;47.796;11.968;2022-09-01T05:26:57;12.35;118.99
64032;DHT22;50278;47.796;11.968;2022-09-01T05:29:25;12.30;118.99
64032;DHT22;50278;47.796;11.968;2022-09-01T05:31:52;12.33;118.99
64032;DHT22;50278;47.796;11.968;2022-09-01T05:34:21;12.36;118.99
64032;DHT22;50278;47.796;11.968;2022-09-01T05:36:56;12.37;118.99
64032;DHT22;50278;47.796;11.968;2022-09-01T05:39:24;12.40;118.99
64032;DHT22;50278;47.796;11.968;2022-09-01T05:41:50;12.42;118.99
64032;DHT22;50278;47.796;11.968;2022-09-01T05:44:19;12.46;118.99
64032;DHT22;50278;47.796;11.968;2022-09-01T05:46:49;12.51;118.99
64032;DHT22;50278;47.796;11.968;2022-09-01T05:49:16;12.57;118.99
64032;DHT22;50278;47.796;11.968;2022-09-01T05:51:48;12.52;118.99
64032;DHT22;50278;47.796;11.968;2022-09-01T05:54:20;12.46;118.99
64032;DHT22;50278;47.796;11.968;2022-09-01T05:56:48;12.57;118.99
64032;DHT22;50278;47.796;11.968;2022-09-01T05:59:18;12.60;118.99
64032;DHT22;50278;47.796;11.968;2022-09-01T06:01:46;12.59;118.99
64032;DHT22;50278;47.796;11.968;2022-09-01T06:04:13;12.64;118.99
64032;DHT22;50278;47.796;11.968;2022-09-01T06:06:42;12.67;118.99
64032;DHT22;50278;47.796;11.968;2022-09-01T06:09:15;12.66;118.99
64032;DHT22;50278;47.796;11.968;2022-09-01T06:11:48;12.73;118.99
64032;DHT22;50278;47.796;11.968;2022-09-01T06:14:15;12.77;118.99
64032;DHT22;50278;47.796;11.968;2022-09-01T06:16:43;12.79;118.99
64032;DHT22;50278;47.796;11.968;2022-09-01T06:19:10;12.71;118.99
64032;DHT22;50278;47.796;11.968;2022-09-01T06:21:41;12.82;118.99
64032;DHT22;50278;47.796;11.968;2022-09-01T06:24:07;12.92;118.99
64032;DHT22;50278;47.796;11.968;2022-09-01T06:26:35;12.99;118.99
64032;DHT22;50278;47.796;11.968;2022-09-01T06:29:08;13.03;118.99
64032;DHT22;50278;47.796;11.968;2022-09-01T06:31:42;13.07;118.99
64032;DHT22;50278;47.796;11.968;2022-09-01T06:34:16;13.18;118.99
64032;DHT22;50278;47.796;11.968;2022-09-01T06:36:45;13.41;118.99
64032;DHT22;50278;47.796;11.968;2022-09-01T06:39:13;13.40;118.99
64032;DHT22;50278;47.796;11.968;2022-09-01T06:41:46;13.35;118.99
64032;DHT22;50278;47.796;11.968;2022-09-01T06:44:18;13.49;118.99
64032;DHT22;50278;47.796;11.968;2022-09-01T06:46:53;13.75;118.99
64032;DHT22;50278;47.796;11.968;2022-09-01T06:49:20;13.76;118.99
64032;DHT22;50278;47.796;11.968;2022-09-01T06:51:48;13.96;118.99
64032;DHT22;50278;47.796;11.968;2022-09-01T06:54:21;13.90;118.99
64032;DHT22;50278;47.796;11.968;2022-09-01T06:56:47;13.94;118.99
64032;DHT22;50278;47.796;11.968;2022-09-01T06:59:13;14.00;118.99
64032;DHT22;50278;47.796;11.968;2022-09-01T07:01:43;14.12;118.99
64032;DHT22;50278;47.796;11.968;2022-09-01T07:04:10;14.00;118.99
64032;DHT22;50278;47.796;11.968;2022-09-01T07:06:40;13.98;118.99
64032;DHT22;50278;47.796;11.968;2022-09-01T07:09:32;13.86;118.99
64032;DHT22;50278;47.796;11.968;2022-09-01T07:12:16;13.78;118.99
64032;DHT22;50278;47.796;11.968;2022-09-01T07:14:44;13.65;118.99
64032;DHT22;50278;47.796;11.968;2022-09-01T07:17:12;13.59;118.99
64032;DHT22;50278;47.796;11.968;2022-09-01T07:19:38;13.66;118.99
64032;DHT22;50278;47.796;11.968;2022-09-01T07:22:04;13.83;118.99
64032;DHT22;50278;47.796;11.968;2022-09-01T07:24:31;13.99;118.99
64032;DHT22;50278;47.796;11.968;2022-09-01T07:27:17;14.18;118.99
64032;DHT22;50278;47.796;11.968;2022-09-01T07:29:44;14.56;118.99
64032;DHT22;50278;47.796;11.968;2022-09-01T07:32:11;14.57;118.99
64032;DHT22;50278;47.796;11.968;2022-09-01T07:34:38;14.75;118.99
64032;DHT22;50278;47.796;11.968;2022-09-01T07:37:06;15.02;118.99
64032;DHT22;50278;47.796;11.968;2022-09-01T07:39:34;15.57;118.99
64032;DHT22;50278;47.796;11.968;2022-09-01T07:42:20;15.71;118.99
64032;DHT22;50278;47.796;11.968;2022-09-01T07:45:10;15.89;118.99
64032;DHT22;50278;47.796;11.968;2022-09-01T07:47:43;15.95;118.99
64032;DHT22;50278;47.796;11.968;2022-09-01T07:50:10;15.82;118.99
64032;DHT22;50278;47.796;11.968;2022-09-01T07:52:40;15.77;118.99
64032;DHT22;50278;47.796;11.968;2022-09-01T07:55:14;16.06;118.99
64032;DHT22;50278;47.796;11.968;2022-09-01T07:57:43;16.34;118.99
64032;DHT22;50278;47.796;11.968;2022-09-01T08:00:13;16.16;118.99
64032;DHT22;50278;47.796;11.968;2022-09-01T08:02:41;16.22;118.99
64032;DHT22;50278;47.796;11.968;2022-09-01T08:05:16;16.17;118.99
64032;DHT22;50278;47.796;11.968;2022-09-01T08:07:45;16.36;118.99
64032;DHT22;50278;47.796;11.968;2022-09-01T08:10:13;16.43;118.99
64032;DHT22;50278;47.796;11.968;2022-09-01T08:12:40;16.29;118.99
64032;DHT22;50278;47.796;11.968;2022-09-01T08:15:07;16.35;118.99
64032;DHT22;50278;47.796;11.968;2022-09-01T08:17:35;16.04;118.99
64032;DHT22;50278;47.796;11.968;2022-09-01T08:20:05;15.82;118.99
64032;DHT22;50278;47.796;11.968;2022-09-01T08:22:57;15.61;118.99
64032;DHT22;50278;47.796;11.968;2022-09-01T08:25:26;15.67;118.99
64032;DHT22;50278;47.796;11.968;2022-09-01T08:27:53;15.75;118.99
64032;DHT22;50278;47.796;11.968;2022-09-01T08:30:19;15.71;118.99
64032;DHT22;50278;47.796;11.968;2022-09-01T08:32:44;15.67;118.99
64032;DHT22;50278;47.796;11.968;2022-09-01T08:35:11;16.00;118.99
64032;DHT22;50278;47.796;11.968;2022-09-01T08:37:38;16.16;118.99
64032;DHT22;50278;47.796;11.968;2022-09-01T08:40:06;16.36;118.99
64032;DHT22;50278;47.796;11.968;2022-09-01T08:47:33;15.90;118.99
64032;DHT22;50278;47.796;11.968;2022-09-01T08:50:00;16.20;118.99
64032;DHT22;50278;47.796;11.968;2022-09-01T08:53:01;16.10;118.99
64032;DHT22;50278;47.796;11.968;2022-09-01T08:55:40;16.37;118.99
64032;DHT22;50278;47.796;11.968;2022-09-01T08:58:11;16.28;118.99
64032;DHT22;50278;47.796;11.968;2022-09-01T09:01:02;16.69;118.99
64032;DHT22;50278;47.796;11.968;2022-09-01T09:03:36;16.77;118.99
64032;DHT22;50278;47.796;11.968;2022-09-01T09:16:55;17.20;118.99
64032;DHT22;50278;47.796;11.968;2022-09-01T09:19:28;17.10;118.99
64032;DHT22;50278;47.796;11.968;2022-09-01T09:21:55;17.35;118.99
64032;DHT22;50278;47.796;11.968;2022-09-01T09:30:13;17.59;118.99
64032;DHT22;50278;47.796;11.968;2022-09-01T09:32:57;17.59;118.99
64032;DHT22;50278;47.796;11.968;2022-09-01T09:41:20;17.90;118.99
64032;DHT22;50278;47.796;11.968;2022-09-01T09:43:57;17.99;118.99
64032;DHT22;50278;47.796;11.968;2022-09-01T09:46:38;18.24;118.99
64032;DHT22;50278;47.796;11.968;2022-09-01T09:49:25;19.05;118.99
64032;DHT22;50278;47.796;11.968;2022-09-01T09:51:54;19.50;118.99
64032;DHT22;50278;47.796;11.968;2022-09-01T09:54:26;19.42;118.99
64032;DHT22;50278;47.796;11.968;2022-09-01T09:57:12;19.76;118.99
64032;DHT22;50278;47.796;11.968;2022-09-01T10:04:56;19.90;118.99
64032;DHT22;50278;47.796;11.968;2022-09-01T10:07:36;19.89;118.99
64032;DHT22;50278;47.796;11.968;2022-09-01T10:12:48;19.62;118.99
64032;DHT22;50278;47.796;11.968;2022-09-01T10:15:17;19.24;118.99
64032;DHT22;50278;47.796;11.968;2022-09-01T10:17:43;19.07;118.99
64032;DHT22;50278;47.796;11.968;2022-09-01T10:20:17;19.06;118.99
64032;DHT22;50278;47.796;11.968;2022-09-01T10:22:45;18.79;118.99
64032;DHT22;50278;47.796;11.968;2022-09-01T10:25:17;18.76;118.99
64032;DHT22;50278;47.796;11.968;2022-09-01T10:27:48;19.28;118.99
64032;DHT22;50278;47.796;11.968;2022-09-01T10:30:19;19.67;118.99
64032;DHT22;50278;47.796;11.968;2022-09-01T10:32:52;19.84;118.99
64032;DHT22;50278;47.796;11.968;2022-09-01T10:35:26;20.27;118.99
64032;DHT22;50278;47.796;11.968;2022-09-01T10:37:53;20.69;118.99
64032;DHT22;50278;47.796;11.968;2022-09-01T10:42:56;20.49;118.99
64032;DHT22;50278;47.796;11.968;2022-09-01T10:45:36;20.29;118.99
64032;DHT22;50278;47.796;11.968;2022-09-01T10:53:58;19.87;118.99
64032;DHT22;50278;47.796;11.968;2022-09-01T10:59:41;19.43;118.99
64032;DHT22;50278;47.796;11.968;2022-09-01T11:04:15;19.20;118.99
64032;DHT22;50278;47.796;11.968;2022-09-01T11:09:20;20.46;118.99
64032;DHT22;50278;47.796;11.968;2022-09-01T11:14:24;21.32;118.99
64032;DHT22;50278;47.796;11.968;2022-09-01T11:17:22;21.03;118.99
64032;DHT22;50278;47.796;11.968;2022-09-01T11:25:37;20.33;118.99
64032;DHT22;50278;47.796;11.968;2022-09-01T11:36:19;22.64;118.99
64032;DHT22;50278;47.796;11.968;2022-09-01T11:38:55;23.42;118.99
64032;DHT22;50278;47.796;11.968;2022-09-01T11:41:27;22.34;118.99
64032;DHT22;50278;47.796;11.968;2022-09-01T11:43:59;21.44;118.99
64032;DHT22;50278;47.796;11.968;2022-09-01T11:46:33;20.93;118.99
64032;DHT22;50278;47.796;11.968;2022-09-01T11:49:06;20.76;118.99
64032;DHT22;50278;47.796;11.968;2022-09-01T11:51:43;22.11;118.99
64032;DHT22;50278;47.796;11.968;2022-09-01T11:54:10;23.14;118.99
64032;DHT22;50278;47.796;11.968;2022-09-01T11:56:36;24.06;118.99
64032;DHT22;50278;47.796;11.968;2022-09-01T11:59:01;23.43;118.99
64032;DHT22;50278;47.796;11.968;2022-09-01T12:01:31;23.24;118.99
64032;DHT22;50278;47.796;11.968;2022-09-01T12:03:57;22.83;118.99
64032;DHT22;50278;47.796;11.968;2022-09-01T12:07:00;23.97;118.99
64032;DHT22;50278;47.796;11.968;2022-09-01T12:09:38;24.25;118.99
64032;DHT22;50278;47.796;11.968;2022-09-01T12:12:13;25.18;118.99
64032;DHT22;50278;47.796;11.968;2022-09-01T12:17:42;26.30;118.99
64032;DHT22;50278;47.796;11.968;2022-09-01T12:20:28;26.82;118.99
64032;DHT22;50278;47.796;11.968;2022-09-01T12:22:54;26.21;118.99
64032;DHT22;50278;47.796;11.968;2022-09-01T12:25:24;24.36;118.99
64032;DHT22;50278;47.796;11.968;2022-09-01T12:27:50;24.54;118.99
64032;DHT22;50278;47.796;11.968;2022-09-01T12:30:17;23.82;118.99
64032;DHT22;50278;47.796;11.968;2022-09-01T12:32:43;23.87;118.99
64032;DHT22;50278;47.796;11.968;2022-09-01T12:35:27;24.77;118.99
64032;DHT22;50278;47.796;11.968;2022-09-01T12:40:50;25.58;118.99
64032;DHT22;50278;47.796;11.968;2022-09-01T12:45:56;25.83;118.99
64032;DHT22;50278;47.796;11.968;2022-09-01T12:48:27;27.44;118.99
64032;DHT22;50278;47.796;11.968;2022-09-01T12:50:59;27.25;118.99
64032;DHT22;50278;47.796;11.968;2022-09-01T12:53:27;28.64;112.26
64032;DHT22;50278;47.796;11.968;2022-09-01T12:55:58;28.31;111.74
64032;DHT22;50278;47.796;11.968;2022-09-01T12:58:25;25.09;118.99
64032;DHT22;50278;47.796;11.968;2022-09-01T13:03:23;25.53;118.99
64032;DHT22;50278;47.796;11.968;2022-09-01T13:05:52;25.77;118.99
64032;DHT22;50278;47.796;11.968;2022-09-01T13:08:20;26.21;118.99
64032;DHT22;50278;47.796;11.968;2022-09-01T13:10:49;27.53;111.03
64032;DHT22;50278;47.796;11.968;2022-09-01T13:13:16;27.22;115.16
64032;DHT22;50278;47.796;11.968;2022-09-01T13:15:47;26.84;114.70
64032;DHT22;50278;47.796;11.968;2022-09-01T13:18:19;27.78;97.34
64032;DHT22;50278;47.796;11.968;2022-09-01T13:20:46;27.87;105.55
64032;DHT22;50278;47.796;11.968;2022-09-01T13:23:12;27.95;107.15
64032;DHT22;50278;47.796;11.968;2022-09-01T13:25:38;28.52;104.10
64032;DHT22;50278;47.796;11.968;2022-09-01T13:28:08;28.97;74.22
64032;DHT22;50278;47.796;11.968;2022-09-01T13:30:36;30.03;82.70
64032;DHT22;50278;47.796;11.968;2022-09-01T13:33:02;31.27;61.30
64032;DHT22;50278;47.796;11.968;2022-09-01T13:35:28;29.71;69.24
64032;DHT22;50278;47.796;11.968;2022-09-01T13:37:53;30.41;63.56
64032;DHT22;50278;47.796;11.968;2022-09-01T13:40:20;30.86;54.17
64032;DHT22;50278;47.796;11.968;2022-09-01T13:42:53;29.48;61.60
64032;DHT22;50278;47.796;11.968;2022-09-01T13:45:25;29.29;64.18
64032;DHT22;50278;47.796;11.968;2022-09-01T13:47:52;29.30;71.51
64032;DHT22;50278;47.796;11.968;2022-09-01T13:50:20;28.42;75.40
64032;DHT22;50278;47.796;11.968;2022-09-01T13:52:55;27.24;90.60
64032;DHT22;50278;47.796;11.968;2022-09-01T13:55:27;27.47;97.43
64032;DHT22;50278;47.796;11.968;2022-09-01T13:57:53;28.74;81.03
64032;DHT22;50278;47.796;11.968;2022-09-01T14:00:21;29.11;75.34
64032;DHT22;50278;47.796;11.968;2022-09-01T14:02:51;29.80;60.18
64032;DHT22;50278;47.796;11.968;2022-09-01T14:05:26;28.77;73.66
64032;DHT22;50278;47.796;11.968;2022-09-01T14:07:52;26.94;84.71
64032;DHT22;50278;47.796;11.968;2022-09-01T14:10:19;27.25;88.57
64032;DHT22;50278;47.796;11.968;2022-09-01T14:12:45;28.46;75.17
64032;DHT22;50278;47.796;11.968;2022-09-01T14:15:12;28.69;70.14
64032;DHT22;50278;47.796;11.968;2022-09-01T14:17:38;29.32;74.41
64032;DHT22;50278;47.796;11.968;2022-09-01T14:20:09;31.02;58.89
64032;DHT22;50278;47.796;11.968;2022-09-01T14:22:38;30.18;64.60
64032;DHT22;50278;47.796;11.968;2022-09-01T14:25:06;29.91;68.18
64032;DHT22;50278;47.796;11.968;2022-09-01T14:27:33;27.04;91.09
64032;DHT22;50278;47.796;11.968;2022-09-01T14:29:59;25.68;118.99
64032;DHT22;50278;47.796;11.968;2022-09-01T14:32:25;24.90;118.99
64032;DHT22;50278;47.796;11.968;2022-09-01T14:34:55;24.57;118.99
64032;DHT22;50278;47.796;11.968;2022-09-01T14:37:22;23.70;118.99
64032;DHT22;50278;47.796;11.968;2022-09-01T14:39:52;23.30;118.99
64032;DHT22;50278;47.796;11.968;2022-09-01T14:42:18;22.93;118.99
64032;DHT22;50278;47.796;11.968;2022-09-01T14:44:45;23.27;118.99
64032;DHT22;50278;47.796;11.968;2022-09-01T14:47:12;23.58;118.99
64032;DHT22;50278;47.796;11.968;2022-09-01T14:49:38;24.88;118.99
64032;DHT22;50278;47.796;11.968;2022-09-01T14:52:05;25.99;118.99
64032;DHT22;50278;47.796;11.968;2022-09-01T14:54:33;26.55;105.92
64032;DHT22;50278;47.796;11.968;2022-09-01T14:57:00;27.08;97.20
64032;DHT22;50278;47.796;11.968;2022-09-01T14:59:25;27.54;89.03
64032;DHT22;50278;47.796;11.968;2022-09-01T15:01:51;28.06;84.75
64032;DHT22;50278;47.796;11.968;2022-09-01T15:04:17;28.37;81.72
64032;DHT22;50278;47.796;11.968;2022-09-01T15:06:42;28.27;75.28
64032;DHT22;50278;47.796;11.968;2022-09-01T15:09:08;28.92;70.36
64032;DHT22;50278;47.796;11.968;2022-09-01T15:11:33;30.21;61.44
64032;DHT22;50278;47.796;11.968;2022-09-01T15:13:59;28.69;78.05
64032;DHT22;50278;47.796;11.968;2022-09-01T15:16:25;29.50;69.64
64032;DHT22;50278;47.796;11.968;2022-09-01T15:18:53;29.14;72.58
64032;DHT22;50278;47.796;11.968;2022-09-01T15:21:25;29.27;72.14
64032;DHT22;50278;47.796;11.968;2022-09-01T15:23:52;29.50;63.14
64032;DHT22;50278;47.796;11.968;2022-09-01T15:26:19;29.45;64.74
64032;DHT22;50278;47.796;11.968;2022-09-01T15:28:46;29.23;62.76
64032;DHT22;50278;47.796;11.968;2022-09-01T15:31:13;28.62;72.28
64032;DHT22;50278;47.796;11.968;2022-09-01T15:33:40;29.00;72.38
64032;DHT22;50278;47.796;11.968;2022-09-01T15:36:06;29.26;60.48
64032;DHT22;50278;47.796;11.968;2022-09-01T15:38:33;29.07;58.45
64032;DHT22;50278;47.796;11.968;2022-09-01T15:40:58;28.44;59.90
64032;DHT22;50278;47.796;11.968;2022-09-01T15:43:29;29.60;56.51
64032;DHT22;50278;47.796;11.968;2022-09-01T15:45:56;29.62;56.58
64032;DHT22;50278;47.796;11.968;2022-09-01T15:48:23;29.31;63.24
64032;DHT22;50278;47.796;11.968;2022-09-01T15:50:49;28.69;65.78
64032;DHT22;50278;47.796;11.968;2022-09-01T15:53:14;29.52;59.17
64032;DHT22;50278;47.796;11.968;2022-09-01T15:55:45;28.72;63.62
64032;DHT22;50278;47.796;11.968;2022-09-01T15:58:14;29.15;61.12
64032;DHT22;50278;47.796;11.968;2022-09-01T16:00:40;28.67;67.28
64032;DHT22;50278;47.796;11.968;2022-09-01T16:03:06;28.31;66.35
64032;DHT22;50278;47.796;11.968;2022-09-01T16:05:35;28.61;65.53
64032;DHT22;50278;47.796;11.968;2022-09-01T16:08:03;28.38;68.83
64032;DHT22;50278;47.796;11.968;2022-09-01T16:10:29;26.62;82.07
64032;DHT22;50278;47.796;11.968;2022-09-01T16:12:55;25.01;102.49
64032;DHT22;50278;47.796;11.968;2022-09-01T16:15:22;24.41;118.99
64032;DHT22;50278;47.796;11.968;2022-09-01T16:18:12;23.42;118.99
64032;DHT22;50278;47.796;11.968;2022-09-01T16:23:19;22.37;118.99
64032;DHT22;50278;47.796;11.968;2022-09-01T16:25:45;22.27;118.99
64032;DHT22;50278;47.796;11.968;2022-09-01T16:28:27;21.83;118.99
64032;DHT22;50278;47.796;11.968;2022-09-01T16:30:59;21.73;118.99
64032;DHT22;50278;47.796;11.968;2022-09-01T16:33:27;22.26;118.99
64032;DHT22;50278;47.796;11.968;2022-09-01T16:38:33;23.25;118.99
64032;DHT22;50278;47.796;11.968;2022-09-01T16:41:10;23.73;118.99
64032;DHT22;50278;47.796;11.968;2022-09-01T16:43:58;24.79;118.99
64032;DHT22;50278;47.796;11.968;2022-09-01T16:46:33;23.83;118.99
64032;DHT22;50278;47.796;11.968;2022-09-01T16:49:16;24.29;118.99
64032;DHT22;50278;47.796;11.968;2022-09-01T16:57:33;23.44;118.99